Time;durP1;ratioP1;P1;durP2;ratioP2;P2;SDS_P1;SDS_P2;PMS_P1;PMS_P2;Temp;Humidity;BMP_temperature;BMP_pressure;BME280_temperature;BME280_humidity;BME280_pressure;Samples;Min_cycle;Max_cycle;Signal;HPM_P1;HPM_P2
2022/03/12 00:00:42;;;;;;;10.02;6.10;;;2.60;63.70;;;;;;5047766;28;20052;-50
2022/03/12 00:03:08;;;;;;;14.40;6.28;;;2.50;63.40;;;;;;5047918;28;20040;-50
2022/03/12 00:05:35;;;;;;;12.27;6.95;;;2.50;63.80;;;;;;5052307;28;20119;-52
2022/03/12 00:08:03;;;;;;;8.85;6.00;;;2.50;64.20;;;;;;5051414;28;20040;-51
2022/03/12 00:10:32;;;;;;;8.02;6.30;;;2.50;64.60;;;;;;5052014;28;20404;-53
2022/03/12 00:12:58;;;;;;;9.95;5.93;;;2.50;64.10;;;;;;5051559;28;20653;-51
2022/03/12 00:15:24;;;;;;;8.25;5.72;;;2.50;63.70;;;;;;5051567;28;20047;-53
2022/03/12 00:17:50;;;;;;;9.45;5.63;;;2.40;64.00;;;;;;5051806;28;20029;-50
2022/03/12 00:20:18;;;;;;;10.40;7.00;;;2.50;63.60;;;;;;5051800;28;20037;-52
2022/03/12 00:22:47;;;;;;;11.10;6.15;;;2.50;63.90;;;;;;5050348;28;20025;-50
2022/03/12 00:25:19;;;;;;;11.05;5.95;;;2.50;63.90;;;;;;5051201;28;20040;-52
2022/03/12 00:27:45;;;;;;;9.35;5.55;;;2.50;63.70;;;;;;5033620;28;20108;-50
2022/03/12 00:30:17;;;;;;;11.10;6.10;;;2.40;64.00;;;;;;5050817;28;20095;-52
2022/03/12 00:32:43;;;;;;;9.02;6.05;;;2.40;63.80;;;;;;5051093;28;20108;-51
2022/03/12 00:35:09;;;;;;;11.23;6.20;;;2.40;64.10;;;;;;5050251;28;20068;-52
2022/03/12 00:37:36;;;;;;;10.38;5.88;;;2.30;64.20;;;;;;5050996;28;20500;-49
2022/03/12 00:40:02;;;;;;;11.60;6.45;;;2.30;64.10;;;;;;5050481;28;20033;-48
2022/03/12 00:42:30;;;;;;;6.22;4.95;;;2.30;63.90;;;;;;5033020;28;20524;-51
2022/03/12 00:44:56;;;;;;;11.52;6.22;;;2.30;64.30;;;;;;5051123;28;20497;-50
2022/03/12 00:47:21;;;;;;;8.02;5.90;;;2.30;63.50;;;;;;5051385;28;20033;-48
2022/03/12 00:49:48;;;;;;;8.50;6.07;;;2.30;64.10;;;;;;5050826;28;20035;-48
2022/03/12 00:52:14;;;;;;;9.43;6.22;;;2.30;63.60;;;;;;5050759;28;20052;-54
2022/03/12 00:54:39;;;;;;;8.93;5.78;;;2.30;63.70;;;;;;5050714;28;20112;-53
2022/03/12 00:57:05;;;;;;;8.60;5.70;;;2.30;63.80;;;;;;5051487;28;20025;-52
2022/03/12 00:59:31;;;;;;;12.23;6.80;;;2.30;64.00;;;;;;5050627;28;20034;-52
2022/03/12 01:02:03;;;;;;;9.25;5.38;;;2.20;63.60;;;;;;5032534;28;20079;-52
2022/03/12 01:04:28;;;;;;;9.93;6.10;;;2.20;63.80;;;;;;5043800;28;20033;-51
2022/03/12 01:06:54;;;;;;;10.73;6.45;;;2.20;64.60;;;;;;5049742;28;20037;-51
2022/03/12 01:09:20;;;;;;;8.90;5.50;;;2.10;64.20;;;;;;5050954;28;20055;-49
2022/03/12 01:11:45;;;;;;;11.45;7.65;;;2.10;64.40;;;;;;5050833;28;20039;-50
2022/03/12 01:14:11;;;;;;;10.98;6.45;;;2.00;64.70;;;;;;5049812;28;20511;-49
2022/03/12 01:16:37;;;;;;;8.93;5.80;;;2.00;64.80;;;;;;5049835;28;20041;-51
2022/03/12 01:19:03;;;;;;;8.80;5.40;;;2.00;64.60;;;;;;5032513;28;20025;-48
2022/03/12 01:21:28;;;;;;;7.93;5.82;;;1.90;64.60;;;;;;5050747;28;20515;-49
2022/03/12 01:23:54;;;;;;;10.50;5.75;;;1.90;65.50;;;;;;5049981;28;20025;-49
2022/03/12 01:26:22;;;;;;;10.30;6.20;;;1.90;65.50;;;;;;5050692;28;20036;-51
2022/03/12 01:28:48;;;;;;;12.35;6.50;;;1.90;64.40;;;;;;5049806;28;20056;-55
2022/03/12 01:31:15;;;;;;;7.93;5.90;;;1.90;66.10;;;;;;5050337;28;20492;-54
2022/03/12 01:33:41;;;;;;;8.68;5.85;;;1.90;65.60;;;;;;5050253;28;20060;-55
2022/03/12 01:36:07;;;;;;;8.75;6.07;;;1.90;65.60;;;;;;5050376;28;20505;-48
2022/03/12 01:38:39;;;;;;;10.52;6.22;;;1.80;65.80;;;;;;5050612;28;20033;-54
2022/03/12 01:41:06;;;;;;;8.27;5.43;;;1.80;65.60;;;;;;5050372;28;20017;-51
2022/03/12 01:43:35;;;;;;;8.48;6.10;;;1.80;65.60;;;;;;5050060;28;20377;-52
2022/03/12 01:46:01;;;;;;;15.23;6.65;;;1.80;65.60;;;;;;5032298;28;20036;-49
2022/03/12 01:48:30;;;;;;;9.05;6.18;;;1.80;66.30;;;;;;5050107;28;20025;-52
2022/03/12 01:50:57;;;;;;;8.07;5.85;;;1.70;65.40;;;;;;5049932;28;20146;-51
2022/03/12 01:53:26;;;;;;;10.50;6.07;;;1.70;65.00;;;;;;5031279;28;20643;-51
2022/03/12 01:55:53;;;;;;;9.15;6.57;;;1.70;65.40;;;;;;5049818;28;20036;-53
2022/03/12 01:58:19;;;;;;;9.27;5.95;;;1.70;65.30;;;;;;5048247;28;20040;-52
2022/03/12 02:00:49;;;;;;;9.23;6.22;;;1.60;66.50;;;;;;5047227;28;20021;-51
2022/03/12 02:03:16;;;;;;;9.68;6.57;;;1.50;65.70;;;;;;5048291;28;20035;-49
2022/03/12 02:05:43;;;;;;;8.68;5.10;;;1.60;65.70;;;;;;5049519;28;20056;-52
2022/03/12 02:08:13;;;;;;;11.98;6.15;;;1.60;65.80;;;;;;5049575;28;20094;-51
2022/03/12 02:10:39;;;;;;;9.73;5.88;;;1.60;65.90;;;;;;5031928;28;20063;-49
2022/03/12 02:13:05;;;;;;;9.82;6.15;;;1.50;66.00;;;;;;5049041;28;20163;-52
2022/03/12 02:15:31;;;;;;;9.80;5.88;;;1.50;66.20;;;;;;5049431;28;20071;-49
2022/03/12 02:17:57;;;;;;;9.93;5.95;;;1.50;66.90;;;;;;5049756;28;20029;-50
2022/03/12 02:20:23;;;;;;;10.00;5.60;;;1.50;66.90;;;;;;5049452;28;20037;-51
2022/03/12 02:22:53;;;;;;;9.52;6.10;;;1.40;66.60;;;;;;5048689;28;20035;-50
2022/03/12 02:25:28;;;;;;;9.52;5.65;;;1.40;67.50;;;;;;5049384;28;20025;-54
2022/03/12 02:27:55;;;;;;;8.13;5.63;;;1.30;67.40;;;;;;5048778;28;20493;-47
2022/03/12 02:30:23;;;;;;;9.77;6.10;;;1.30;67.20;;;;;;5031390;28;20029;-48
2022/03/12 02:32:54;;;;;;;9.65;5.97;;;1.30;68.50;;;;;;5048923;28;20052;-52
2022/03/12 02:35:24;;;;;;;10.90;6.75;;;1.20;67.60;;;;;;5048674;28;20037;-52
2022/03/12 02:37:52;;;;;;;11.55;6.18;;;1.20;68.50;;;;;;5031374;28;20479;-48
2022/03/12 02:40:19;;;;;;;8.75;5.55;;;1.10;68.00;;;;;;5049493;28;20104;-48
2022/03/12 02:42:46;;;;;;;11.68;6.45;;;1.10;68.80;;;;;;5048749;28;20028;-50
2022/03/12 02:45:11;;;;;;;10.75;6.13;;;1.10;68.10;;;;;;5048947;28;20036;-50
2022/03/12 02:47:41;;;;;;;9.13;6.32;;;1.10;68.20;;;;;;5048827;28;20037;-48
2022/03/12 02:50:09;;;;;;;10.02;5.68;;;1.10;67.80;;;;;;5048417;28;20470;-49
2022/03/12 02:52:41;;;;;;;11.27;6.25;;;1.10;67.50;;;;;;5048503;28;20040;-53
2022/03/12 02:55:09;;;;;;;8.50;5.93;;;1.00;67.80;;;;;;5049325;28;20155;-52
2022/03/12 02:57:35;;;;;;;8.77;5.53;;;1.00;67.80;;;;;;5048733;28;20560;-50
2022/03/12 03:00:08;;;;;;;9.77;6.03;;;1.00;68.00;;;;;;5047956;28;20104;-49
2022/03/12 03:02:41;;;;;;;9.95;6.03;;;1.00;67.90;;;;;;5048760;28;20024;-51
2022/03/12 03:05:44;;;;;;;8.27;5.45;;;0.90;68.30;;;;;;5049103;28;20021;-51
2022/03/12 03:08:12;;;;;;;7.85;5.20;;;0.90;68.80;;;;;;5048833;28;20030;-51
2022/03/12 03:10:46;;;;;;;9.63;6.25;;;0.90;68.50;;;;;;5048238;28;20037;-47
2022/03/12 03:13:17;;;;;;;9.07;5.80;;;0.80;69.20;;;;;;5047726;28;20072;-49
2022/03/12 03:15:51;;;;;;;11.00;6.25;;;0.80;68.60;;;;;;5048052;28;20086;-50
2022/03/12 03:18:22;;;;;;;8.73;5.55;;;0.80;69.10;;;;;;5030806;28;20400;-50
2022/03/12 03:20:53;;;;;;;9.13;5.60;;;0.70;68.20;;;;;;5048609;28;20029;-49
2022/03/12 03:23:21;;;;;;;10.95;6.25;;;0.70;69.40;;;;;;5030074;28;20116;-50
2022/03/12 03:25:47;;;;;;;10.77;5.28;;;0.70;68.00;;;;;;5048494;28;20033;-52
2022/03/12 03:28:13;;;;;;;9.55;5.97;;;0.70;68.20;;;;;;5048371;28;20060;-51
2022/03/12 03:30:40;;;;;;;9.02;5.43;;;0.70;68.30;;;;;;5048284;28;20745;-51
2022/03/12 03:33:15;;;;;;;8.10;5.82;;;0.70;69.00;;;;;;5048188;28;20126;-51
2022/03/12 03:35:41;;;;;;;10.52;5.47;;;0.70;69.40;;;;;;5048566;28;20029;-51
2022/03/12 03:38:08;;;;;;;10.20;6.05;;;0.70;68.70;;;;;;5048404;28;20054;-52
2022/03/12 03:40:34;;;;;;;10.45;6.10;;;0.70;68.70;;;;;;5052691;28;20036;-51
2022/03/12 03:43:00;;;;;;;9.77;5.80;;;0.70;68.30;;;;;;5034746;28;20040;-49
2022/03/12 03:45:27;;;;;;;12.80;6.03;;;0.70;68.10;;;;;;5052806;28;20033;-53
2022/03/12 03:47:56;;;;;;;10.98;6.43;;;0.70;68.20;;;;;;5052464;28;20028;-53
2022/03/12 03:50:26;;;;;;;12.82;5.70;;;0.60;68.40;;;;;;5052354;28;20137;-51
2022/03/12 03:52:56;;;;;;;8.90;5.72;;;0.60;68.70;;;;;;5051657;28;20033;-51
2022/03/12 03:55:25;;;;;;;9.73;6.45;;;0.60;68.00;;;;;;5034360;28;20448;-53
2022/03/12 03:57:53;;;;;;;8.65;5.75;;;0.60;68.10;;;;;;5051767;28;20020;-50
2022/03/12 04:00:21;;;;;;;9.13;5.90;;;0.60;69.00;;;;;;5052045;28;20497;-50
2022/03/12 04:02:47;;;;;;;8.88;5.75;;;0.60;69.00;;;;;;5051268;28;20036;-50
2022/03/12 04:05:13;;;;;;;7.28;4.75;;;0.60;68.30;;;;;;5051885;28;20123;-49
2022/03/12 04:07:39;;;;;;;9.18;5.68;;;0.50;68.40;;;;;;5051822;28;20441;-48
2022/03/12 04:10:05;;;;;;;9.48;5.93;;;0.50;68.10;;;;;;5051916;28;20084;-50
2022/03/12 04:12:30;;;;;;;8.35;5.20;;;0.50;68.30;;;;;;5051328;28;20037;-52
2022/03/12 04:14:57;;;;;;;8.57;5.60;;;0.50;68.60;;;;;;5033634;28;20086;-50
2022/03/12 04:17:23;;;;;;;7.97;5.72;;;0.40;69.20;;;;;;5051634;28;20033;-51
2022/03/12 04:19:49;;;;;;;10.93;5.65;;;0.40;68.60;;;;;;5051550;28;20397;-50
2022/03/12 04:22:16;;;;;;;7.78;5.45;;;0.40;68.60;;;;;;5051125;28;20493;-49
2022/03/12 04:24:42;;;;;;;9.68;6.18;;;0.30;69.50;;;;;;5033405;28;20061;-49
2022/03/12 04:27:09;;;;;;;10.55;5.95;;;0.30;68.80;;;;;;5051441;28;20874;-50
2022/03/12 04:29:35;;;;;;;10.85;5.63;;;0.30;69.20;;;;;;5050489;28;20037;-51
2022/03/12 04:32:01;;;;;;;8.00;5.18;;;0.30;68.30;;;;;;5051447;28;20104;-51
2022/03/12 04:34:26;;;;;;;8.23;5.57;;;0.40;68.00;;;;;;5050667;28;20021;-50
2022/03/12 04:36:53;;;;;;;9.20;5.63;;;0.40;69.30;;;;;;5044209;28;20034;-52
2022/03/12 04:39:19;;;;;;;10.25;5.78;;;0.40;69.20;;;;;;5013691;28;20451;-52
2022/03/12 04:41:44;;;;;;;10.25;5.68;;;0.30;71.00;;;;;;5013829;28;20028;-50
2022/03/12 04:44:10;;;;;;;9.40;5.35;;;0.30;68.20;;;;;;5030097;28;20036;-49
2022/03/12 04:46:36;;;;;;;9.50;5.40;;;0.30;69.50;;;;;;5033510;28;20024;-53
2022/03/12 04:49:04;;;;;;;9.25;5.30;;;0.20;69.10;;;;;;5050994;28;20032;-53
2022/03/12 04:51:30;;;;;;;8.57;5.82;;;0.20;69.00;;;;;;5051252;28;20503;-53
2022/03/12 04:54:00;;;;;;;9.88;5.90;;;0.20;69.90;;;;;;5050340;28;20402;-51
2022/03/12 04:56:27;;;;;;;7.82;5.13;;;0.20;69.20;;;;;;5050957;28;20123;-53
2022/03/12 04:58:53;;;;;;;7.28;5.18;;;0.10;70.00;;;;;;5050861;28;20037;-53
2022/03/12 05:01:20;;;;;;;10.82;6.13;;;0.10;69.80;;;;;;5050382;28;20033;-51
2022/03/12 05:03:46;;;;;;;8.85;5.55;;;0.10;69.90;;;;;;5050497;28;20033;-52
2022/03/12 05:06:13;;;;;;;8.57;5.85;;;0.10;69.30;;;;;;5050316;28;20787;-49
2022/03/12 05:08:39;;;;;;;9.85;5.97;;;0.10;69.50;;;;;;5050687;28;20041;-49
2022/03/12 05:11:05;;;;;;;9.00;5.30;;;0.10;70.50;;;;;;5050844;28;20172;-50
2022/03/12 05:13:32;;;;;;;9.32;6.22;;;0.10;69.80;;;;;;5050143;28;20135;-49
2022/03/12 05:16:06;;;;;;;10.00;5.47;;;0.10;70.40;;;;;;5050813;28;20041;-53
2022/03/12 05:18:33;;;;;;;8.82;5.80;;;0.00;69.90;;;;;;5050681;28;20025;-50
2022/03/12 05:20:59;;;;;;;9.15;5.20;;;0.00;70.00;;;;;;5050778;28;20056;-50
2022/03/12 05:23:26;;;;;;;7.35;4.68;;;0.00;70.00;;;;;;5050046;28;20413;-49
2022/03/12 05:25:52;;;;;;;9.57;5.50;;;0.00;71.50;;;;;;5050537;28;20029;-48
2022/03/12 05:28:29;;;;;;;10.27;6.07;;;0.00;70.30;;;;;;5050708;28;20508;-49
2022/03/12 05:30:58;;;;;;;10.60;5.97;;;-0.10;71.50;;;;;;5050304;28;20036;-51
2022/03/12 05:33:24;;;;;;;8.75;5.75;;;-0.10;71.40;;;;;;5050199;28;20028;-48
2022/03/12 05:35:54;;;;;;;8.20;5.10;;;-0.10;71.70;;;;;;5050313;28;20028;-52
2022/03/12 05:38:21;;;;;;;8.93;5.80;;;-0.10;71.00;;;;;;5050257;28;20492;-49
2022/03/12 05:40:48;;;;;;;10.48;5.10;;;-0.10;71.00;;;;;;5050128;28;20021;-50
2022/03/12 05:43:17;;;;;;;7.60;5.43;;;-0.20;71.80;;;;;;5049621;28;20029;-49
2022/03/12 05:45:51;;;;;;;9.30;5.43;;;-0.20;71.60;;;;;;5032229;28;20419;-52
2022/03/12 05:48:17;;;;;;;9.30;5.97;;;-0.20;71.50;;;;;;5050118;28;20037;-51
2022/03/12 05:50:48;;;;;;;8.30;5.25;;;-0.20;71.70;;;;;;5031988;28;20060;-48
2022/03/12 05:53:18;;;;;;;9.52;5.85;;;-0.20;72.00;;;;;;5049306;28;20025;-52
2022/03/12 05:55:43;;;;;;;11.77;5.55;;;-0.20;71.50;;;;;;5031998;28;20032;-52
2022/03/12 05:58:11;;;;;;;8.05;5.72;;;-0.20;72.20;;;;;;5049784;28;20025;-56
2022/03/12 06:00:39;;;;;;;7.72;5.03;;;-0.20;72.00;;;;;;5049635;28;20043;-49
2022/03/12 06:03:05;;;;;;;9.15;5.43;;;-0.20;71.70;;;;;;5049457;28;20397;-51
2022/03/12 06:05:35;;;;;;;14.57;6.00;;;-0.30;72.10;;;;;;5050454;28;20587;-50
2022/03/12 06:08:00;;;;;;;9.55;5.28;;;-0.20;72.10;;;;;;5049883;28;20028;-48
2022/03/12 06:10:31;;;;;;;7.60;5.28;;;-0.30;72.80;;;;;;5049195;28;20037;-50
2022/03/12 06:12:58;;;;;;;10.00;6.25;;;-0.30;72.90;;;;;;5049043;28;20081;-51
2022/03/12 06:15:25;;;;;;;8.00;5.57;;;-0.30;72.80;;;;;;5049626;28;20052;-54
2022/03/12 06:17:51;;;;;;;9.48;4.90;;;-0.30;73.20;;;;;;5049127;28;20029;-53
2022/03/12 06:20:20;;;;;;;10.15;5.57;;;-0.30;73.20;;;;;;5049397;28;20489;-51
2022/03/12 06:22:47;;;;;;;9.52;5.95;;;-0.30;71.60;;;;;;5048210;28;20508;-48
2022/03/12 06:25:16;;;;;;;7.35;5.15;;;-0.30;72.50;;;;;;5049050;28;20035;-49
2022/03/12 06:27:43;;;;;;;10.80;5.55;;;-0.30;73.10;;;;;;5049263;28;20087;-50
2022/03/12 06:30:11;;;;;;;7.20;4.93;;;-0.20;71.40;;;;;;5031484;28;20036;-49
2022/03/12 06:32:38;;;;;;;9.27;5.28;;;-0.20;71.50;;;;;;5048413;28;20036;-49
2022/03/12 06:35:05;;;;;;;10.25;5.07;;;-0.20;71.80;;;;;;5048770;28;20127;-51
2022/03/12 06:37:32;;;;;;;11.43;5.82;;;-0.20;72.50;;;;;;5049155;28;20060;-53
2022/03/12 06:39:58;;;;;;;7.95;5.28;;;-0.20;72.00;;;;;;5048712;28;20103;-51
2022/03/12 06:42:28;;;;;;;7.93;5.15;;;-0.20;72.10;;;;;;5048311;28;20079;-49
2022/03/12 06:44:54;;;;;;;8.82;5.63;;;-0.10;71.20;;;;;;5049141;28;20036;-50
2022/03/12 06:47:20;;;;;;;10.30;5.45;;;0.00;71.40;;;;;;5048378;28;20033;-48
2022/03/12 06:49:46;;;;;;;7.28;5.38;;;0.00;70.20;;;;;;5042028;28;20033;-49
2022/03/12 06:52:11;;;;;;;9.07;5.45;;;0.00;70.30;;;;;;5049184;28;20025;-51
2022/03/12 06:54:38;;;;;;;7.63;5.80;;;0.10;70.40;;;;;;5048599;28;20098;-53
2022/03/12 06:57:04;;;;;;;8.82;5.53;;;0.20;70.00;;;;;;5031093;28;20048;-50
2022/03/12 06:59:30;;;;;;;8.90;5.88;;;0.20;69.70;;;;;;5049119;28;20021;-50
2022/03/12 07:01:56;;;;;;;8.77;6.05;;;0.20;70.10;;;;;;5048603;28;20021;-53
2022/03/12 07:04:22;;;;;;;10.63;5.93;;;0.30;69.40;;;;;;5048622;28;20120;-50
2022/03/12 07:06:51;;;;;;;8.05;5.55;;;0.30;69.20;;;;;;5049122;28;20029;-49
2022/03/12 07:09:17;;;;;;;8.07;4.95;;;0.40;69.60;;;;;;5048847;28;20025;-49
2022/03/12 07:11:42;;;;;;;6.93;5.32;;;0.40;68.40;;;;;;5048031;28;20096;-52
2022/03/12 07:14:08;;;;;;;7.82;4.72;;;0.40;68.70;;;;;;5048469;28;20504;-50
2022/03/12 07:16:34;;;;;;;11.30;4.80;;;0.50;68.70;;;;;;5030751;28;20039;-48
2022/03/12 07:19:01;;;;;;;8.88;4.72;;;0.60;67.00;;;;;;5048742;28;20049;-49
2022/03/12 07:21:27;;;;;;;9.30;4.90;;;0.70;68.20;;;;;;5049229;28;20033;-50
2022/03/12 07:23:53;;;;;;;7.82;5.50;;;0.70;68.00;;;;;;5048599;28;20028;-51
2022/03/12 07:26:20;;;;;;;8.13;4.85;;;0.80;68.10;;;;;;5048342;28;20108;-51
2022/03/12 07:28:47;;;;;;;9.25;5.78;;;0.90;65.90;;;;;;5048512;28;20033;-52
2022/03/12 07:31:14;;;;;;;7.70;5.10;;;0.90;67.70;;;;;;5048373;28;20400;-46
2022/03/12 07:33:40;;;;;;;7.90;5.55;;;1.00;67.30;;;;;;5048183;28;20021;-49
2022/03/12 07:36:05;;;;;;;11.13;5.50;;;1.10;66.80;;;;;;5048079;28;20029;-53
2022/03/12 07:38:32;;;;;;;7.03;5.10;;;1.20;65.70;;;;;;5048238;28;20545;-49
2022/03/12 07:40:58;;;;;;;7.45;5.15;;;1.30;65.40;;;;;;5030331;28;20607;-51
2022/03/12 07:43:24;;;;;;;7.22;4.88;;;1.40;63.10;;;;;;5047968;28;20040;-49
2022/03/12 07:45:49;;;;;;;6.85;4.00;;;1.50;63.60;;;;;;5048080;28;20055;-50
2022/03/12 07:48:15;;;;;;;8.43;4.78;;;1.70;63.20;;;;;;5048336;28;20032;-51
2022/03/12 07:50:41;;;;;;;7.95;4.50;;;1.80;62.20;;;;;;5048384;28;20033;-52
2022/03/12 07:53:06;;;;;;;7.93;4.63;;;2.00;62.00;;;;;;5048109;28;20105;-51
2022/03/12 07:55:32;;;;;;;5.80;4.65;;;2.10;61.00;;;;;;5047886;28;20032;-50
2022/03/12 07:57:57;;;;;;;9.18;4.68;;;2.20;60.50;;;;;;5048168;28;20025;-50
2022/03/12 08:00:28;;;;;;;6.18;4.10;;;2.40;60.70;;;;;;5047644;28;20108;-49
2022/03/12 08:02:54;;;;;;;6.68;4.85;;;2.60;60.20;;;;;;5048351;28;20108;-49
2022/03/12 08:05:23;;;;;;;9.77;4.93;;;2.70;59.70;;;;;;5047700;28;20116;-52
2022/03/12 08:07:50;;;;;;;6.75;4.35;;;2.90;59.80;;;;;;5048244;28;20040;-49
2022/03/12 08:10:16;;;;;;;10.48;5.32;;;3.10;58.30;;;;;;5046973;28;20481;-51
2022/03/12 08:12:43;;;;;;;8.32;5.03;;;3.30;59.10;;;;;;5047578;28;20057;-52
2022/03/12 08:15:11;;;;;;;6.43;4.68;;;3.50;59.30;;;;;;5047924;28;20455;-50
2022/03/12 08:17:37;;;;;;;7.70;5.43;;;3.70;58.20;;;;;;5048673;28;20029;-54
2022/03/12 08:20:06;;;;;;;6.18;4.35;;;3.90;57.50;;;;;;5048463;28;20104;-54
2022/03/12 08:22:32;;;;;;;6.68;4.65;;;4.20;56.20;;;;;;5047535;28;20136;-49
2022/03/12 08:24:58;;;;;;;6.85;4.35;;;4.40;56.20;;;;;;5049943;28;20029;-52
2022/03/12 08:27:23;;;;;;;6.93;4.43;;;4.60;55.00;;;;;;5051293;28;20035;-51
2022/03/12 08:29:50;;;;;;;7.53;4.25;;;4.90;55.90;;;;;;5051594;28;20070;-51
2022/03/12 08:32:15;;;;;;;7.25;4.82;;;5.00;53.80;;;;;;5050537;28;20616;-50
2022/03/12 08:34:41;;;;;;;4.93;4.20;;;5.20;55.80;;;;;;5033493;28;20029;-54
2022/03/12 08:37:08;;;;;;;6.50;4.07;;;5.50;56.30;;;;;;5050710;28;20025;-50
2022/03/12 08:39:34;;;;;;;7.32;5.40;;;5.70;53.20;;;;;;5051804;28;20017;-52
2022/03/12 08:42:00;;;;;;;7.30;4.93;;;5.90;52.60;;;;;;5050960;28;20488;-52
2022/03/12 08:44:25;;;;;;;6.30;4.97;;;6.00;53.00;;;;;;5051315;28;20032;-54
2022/03/12 08:46:52;;;;;;;6.28;4.78;;;6.20;52.50;;;;;;5051341;28;20489;-51
2022/03/12 08:49:18;;;;;;;6.25;4.80;;;6.40;53.60;;;;;;5051016;28;20428;-52
2022/03/12 08:51:44;;;;;;;7.15;4.68;;;6.60;53.20;;;;;;5050938;28;20083;-51
2022/03/12 08:54:09;;;;;;;5.35;4.13;;;6.60;53.00;;;;;;5050904;28;20634;-53
2022/03/12 08:56:36;;;;;;;10.25;4.70;;;6.60;52.40;;;;;;5051316;28;20037;-54
2022/03/12 08:59:05;;;;;;;5.47;4.38;;;6.60;52.60;;;;;;5050813;28;20025;-54
2022/03/12 09:01:32;;;;;;;6.00;4.55;;;6.50;52.10;;;;;;5051025;28;20108;-54
2022/03/12 09:03:57;;;;;;;6.45;4.63;;;6.40;53.10;;;;;;5048412;28;20078;-51
2022/03/12 09:06:26;;;;;;;7.90;4.32;;;6.30;52.40;;;;;;5049425;28;20041;-54
2022/03/12 09:08:53;;;;;;;5.43;4.82;;;6.20;52.90;;;;;;5050134;28;20035;-52
2022/03/12 09:11:18;;;;;;;6.40;5.13;;;6.00;53.40;;;;;;5049212;28;20043;-54
2022/03/12 09:13:48;;;;;;;7.88;4.15;;;5.90;53.00;;;;;;5050037;28;20405;-53
2022/03/12 09:16:14;;;;;;;7.25;4.72;;;5.80;53.70;;;;;;5050501;28;20033;-52
2022/03/12 09:18:42;;;;;;;8.27;4.53;;;5.80;53.80;;;;;;5050706;28;20045;-50
2022/03/12 09:21:08;;;;;;;5.78;4.63;;;5.80;53.30;;;;;;5050844;28;20021;-52
2022/03/12 09:23:34;;;;;;;5.47;4.03;;;5.80;53.90;;;;;;5050512;28;20013;-50
2022/03/12 09:26:00;;;;;;;6.90;4.32;;;5.80;53.20;;;;;;5032660;28;20083;-52
2022/03/12 09:28:27;;;;;;;7.38;4.28;;;5.70;53.20;;;;;;5050833;28;20554;-52
2022/03/12 09:30:53;;;;;;;5.78;3.80;;;5.70;54.40;;;;;;5050486;28;20025;-56
2022/03/12 09:33:21;;;;;;;6.78;4.63;;;5.70;53.50;;;;;;5050736;28;20074;-51
2022/03/12 09:35:48;;;;;;;7.55;4.75;;;5.70;53.70;;;;;;5049409;28;20028;-54
2022/03/12 09:38:15;;;;;;;8.35;5.15;;;5.80;54.30;;;;;;5050028;28;20499;-52
2022/03/12 09:40:41;;;;;;;4.50;4.10;;;5.90;54.70;;;;;;5050052;28;20021;-54
2022/03/12 09:43:07;;;;;;;5.38;4.05;;;6.00;53.00;;;;;;5050122;28;20078;-53
2022/03/12 09:45:34;;;;;;;5.50;4.32;;;6.10;52.90;;;;;;5050192;28;20052;-53
2022/03/12 09:48:00;;;;;;;5.88;4.40;;;6.30;53.90;;;;;;5050413;28;20031;-52
2022/03/12 09:50:26;;;;;;;7.03;4.30;;;6.40;51.70;;;;;;5050294;28;20028;-51
2022/03/12 09:52:51;;;;;;;7.32;4.22;;;6.60;53.40;;;;;;5049971;28;20021;-52
2022/03/12 09:55:19;;;;;;;6.13;4.68;;;6.70;53.60;;;;;;5050146;28;20087;-52
2022/03/12 09:57:46;;;;;;;5.93;4.03;;;6.90;52.30;;;;;;5050516;28;20040;-52
2022/03/12 10:00:13;;;;;;;8.25;4.85;;;7.00;52.20;;;;;;5048963;28;20128;-54
2022/03/12 10:02:39;;;;;;;5.65;3.92;;;7.20;54.00;;;;;;5049450;28;20515;-50
2022/03/12 10:05:06;;;;;;;6.63;4.45;;;7.40;53.80;;;;;;5050017;28;20095;-52
2022/03/12 10:07:32;;;;;;;5.45;4.13;;;7.60;52.30;;;;;;5049605;28;20040;-52
2022/03/12 10:09:58;;;;;;;7.13;4.38;;;7.80;53.90;;;;;;5047564;28;20123;-54
2022/03/12 10:12:23;;;;;;;6.47;4.38;;;8.00;51.90;;;;;;5048609;28;20033;-51
2022/03/12 10:14:50;;;;;;;6.53;4.72;;;8.00;52.70;;;;;;5048821;28;20061;-54
2022/03/12 10:17:17;;;;;;;7.95;4.80;;;8.00;49.90;;;;;;5047306;28;20055;-53
2022/03/12 10:19:44;;;;;;;6.80;4.50;;;8.00;49.80;;;;;;5048256;28;20107;-50
2022/03/12 10:22:11;;;;;;;6.55;4.43;;;8.00;50.90;;;;;;5047472;28;20027;-54
2022/03/12 10:24:37;;;;;;;5.13;3.95;;;8.00;50.30;;;;;;5048770;28;20028;-49
2022/03/12 10:27:04;;;;;;;6.18;4.07;;;8.00;50.20;;;;;;5030643;28;20437;-52
2022/03/12 10:29:30;;;;;;;5.72;4.50;;;8.00;50.40;;;;;;5049281;28;20025;-53
2022/03/12 10:31:56;;;;;;;8.38;4.75;;;8.10;50.20;;;;;;5046845;28;20033;-52
2022/03/12 10:34:24;;;;;;;6.35;4.68;;;8.10;51.10;;;;;;5044163;28;20040;-50
2022/03/12 10:36:52;;;;;;;6.72;4.60;;;8.20;51.40;;;;;;5045800;28;20082;-51
2022/03/12 10:39:35;;;;;;;5.00;4.13;;;8.30;49.80;;;;;;5049096;28;20025;-53
2022/03/12 10:42:07;;;;;;;7.00;4.47;;;8.30;49.50;;;;;;5049010;28;20044;-49
2022/03/12 10:44:40;;;;;;;6.15;4.47;;;8.50;51.10;;;;;;5049184;28;20380;-54
2022/03/12 10:47:17;;;;;;;6.90;4.68;;;8.60;50.60;;;;;;5047633;28;20041;-54
2022/03/12 10:50:04;;;;;;;7.47;4.55;;;8.80;50.40;;;;;;5048370;28;20033;-51
2022/03/12 10:52:31;;;;;;;;;;;8.90;49.60;;;;;;5048166;28;20040;-49
2022/03/12 10:54:58;;;;;;;6.30;3.95;;;9.00;50.20;;;;;;5044106;28;20348;-51
2022/03/12 10:57:23;;;;;;;8.68;4.65;;;9.10;49.20;;;;;;5046478;28;20028;-52
2022/03/12 10:59:54;;;;;;;6.15;4.35;;;9.20;50.00;;;;;;5046713;28;20029;-51
2022/03/12 11:02:19;;;;;;;5.57;4.50;;;9.20;49.70;;;;;;5030584;28;20025;-49
2022/03/12 11:04:45;;;;;;;6.00;5.07;;;9.20;48.60;;;;;;5048797;28;20515;-49
2022/03/12 11:07:28;;;;;;;6.45;5.20;;;9.30;48.80;;;;;;5040023;28;20029;-54
2022/03/12 11:09:56;;;;;;;8.02;4.80;;;9.20;48.90;;;;;;5047437;28;20025;-51
2022/03/12 11:12:31;;;;;;;6.40;4.55;;;9.30;50.00;;;;;;5048080;28;20058;-52
2022/03/12 11:15:15;;;;;;;7.80;4.93;;;9.30;49.00;;;;;;5045803;28;20159;-54
2022/03/12 11:17:46;;;;;;;6.40;4.80;;;9.40;50.40;;;;;;5048000;28;20069;-50
2022/03/12 11:20:21;;;;;;;7.80;4.43;;;9.50;49.70;;;;;;5047283;28;20104;-52
2022/03/12 11:22:51;;;;;;;5.53;4.63;;;9.60;49.80;;;;;;5047765;28;20017;-50
2022/03/12 11:25:22;;;;;;;7.10;5.45;;;9.60;51.00;;;;;;5048030;28;20049;-54
2022/03/12 11:27:50;;;;;;;6.90;4.82;;;9.70;48.80;;;;;;5047616;28;20532;-51
2022/03/12 11:30:20;;;;;;;8.52;4.90;;;9.70;49.40;;;;;;5047573;28;20090;-50
2022/03/12 11:32:47;;;;;;;6.82;5.30;;;9.70;50.10;;;;;;5047823;28;20033;-51
2022/03/12 11:35:21;;;;;;;6.78;4.60;;;9.70;49.30;;;;;;5043790;28;20082;-48
2022/03/12 11:37:47;;;;;;;5.78;4.90;;;9.80;49.50;;;;;;5045616;28;20116;-53
2022/03/12 11:40:19;;;;;;;6.95;5.35;;;9.70;48.60;;;;;;5029638;28;20040;-51
2022/03/12 11:42:45;;;;;;;6.03;5.30;;;9.60;49.40;;;;;;5046349;28;20063;-51
2022/03/12 11:45:16;;;;;;;5.38;4.47;;;9.60;49.00;;;;;;5047628;28;20450;-51
2022/03/12 11:47:44;;;;;;;8.38;4.65;;;9.50;49.40;;;;;;5047291;28;20529;-51
2022/03/12 11:50:18;;;;;;;10.27;5.22;;;9.60;48.70;;;;;;5049325;28;20025;-52
2022/03/12 11:52:45;;;;;;;5.82;4.38;;;9.70;50.60;;;;;;5047036;28;20036;-50
2022/03/12 11:55:17;;;;;;;5.57;4.40;;;9.90;51.40;;;;;;5048731;28;20060;-55
2022/03/12 11:57:47;;;;;;;6.68;4.88;;;10.00;50.00;;;;;;5048993;28;20036;-52
2022/03/12 12:00:22;;;;;;;7.38;4.70;;;10.10;48.80;;;;;;5049693;28;20047;-51
2022/03/12 12:02:48;;;;;;;5.55;4.10;;;10.10;49.20;;;;;;5052202;28;20025;-50
2022/03/12 12:05:17;;;;;;;7.60;5.47;;;10.10;49.70;;;;;;5052633;28;20040;-51
2022/03/12 12:07:47;;;;;;;7.90;4.90;;;10.20;48.40;;;;;;5052820;28;20032;-50
2022/03/12 12:10:16;;;;;;;6.65;5.03;;;10.20;49.20;;;;;;5052225;28;20021;-52
2022/03/12 12:12:49;;;;;;;6.13;4.28;;;10.20;49.20;;;;;;5052350;28;20096;-50
2022/03/12 12:15:19;;;;;;;6.82;4.95;;;10.20;50.20;;;;;;5052698;28;20049;-53
2022/03/12 12:17:45;;;;;;;8.50;5.70;;;10.30;51.20;;;;;;5034830;28;20049;-53
2022/03/12 12:20:15;;;;;;;9.50;4.95;;;10.30;49.20;;;;;;5052621;28;20477;-51
2022/03/12 12:22:41;;;;;;;6.95;4.60;;;10.40;49.60;;;;;;5052115;28;20051;-51
2022/03/12 12:25:08;;;;;;;5.07;4.40;;;10.40;49.20;;;;;;5052430;28;20029;-53
2022/03/12 12:27:41;;;;;;;7.18;4.90;;;10.40;49.80;;;;;;5052421;28;20025;-52
2022/03/12 12:30:09;;;;;;;7.70;4.72;;;10.40;48.20;;;;;;5052440;28;20029;-53
2022/03/12 12:32:44;;;;;;;6.60;5.10;;;10.40;50.10;;;;;;5034442;28;20335;-51
2022/03/12 12:35:12;;;;;;;5.70;4.55;;;10.40;49.80;;;;;;5051780;28;20029;-50
2022/03/12 12:37:47;;;;;;;6.28;5.18;;;10.50;49.90;;;;;;5052450;28;20495;-54
2022/03/12 12:40:17;;;;;;;5.43;4.57;;;10.60;50.20;;;;;;5052667;28;20583;-53
2022/03/12 12:42:43;;;;;;;8.10;5.13;;;10.70;50.30;;;;;;5051830;28;20060;-52
2022/03/12 12:45:20;;;;;;;6.35;5.13;;;10.70;50.40;;;;;;5052134;28;20098;-52
2022/03/12 12:47:46;;;;;;;5.95;4.95;;;10.80;50.10;;;;;;5051472;28;20488;-50
2022/03/12 12:50:21;;;;;;;6.72;4.97;;;10.90;48.60;;;;;;5051529;28;20025;-54
2022/03/12 12:53:11;;;;;;;5.07;4.50;;;10.90;48.60;;;;;;5049385;28;20526;-50
2022/03/12 12:55:38;;;;;;;5.70;4.72;;;11.00;49.70;;;;;;5046574;28;20052;-53